Time;durP1;ratioP1;P1;durP2;ratioP2;P2;SDS_P1;SDS_P2;PMS_P1;PMS_P2;Temp;Humidity;BMP_temperature;BMP_pressure;BME280_temperature;BME280_humidity;BME280_pressure;Samples;Min_cycle;Max_cycle;Signal;HPM_P1;HPM_P2
2022/03/04 00:00:46;;;;;;;;;;;;;;;4.42;42.35;99694.81;4388696;32;32201;-81
2022/03/04 00:03:14;;;;;;;;;;;;;;;4.28;42.30;99702.00;4412865;32;33950;-80
2022/03/04 00:05:42;;;;;;;;;;;;;;;4.43;41.86;99699.13;4386718;32;35117;-80
2022/03/04 00:08:19;;;;;;;;;;;;;;;4.49;41.96;99706.63;4409631;32;34195;-80
2022/03/04 00:10:46;;;;;;;;;;;;;;;4.54;41.54;99707.12;4406672;32;35259;-80
2022/03/04 00:13:14;;;;;;;;;;;;;;;4.57;41.56;99700.78;4413193;32;34092;-80
2022/03/04 00:15:43;;;;;;;;;;;;;;;4.07;43.88;99701.69;4399681;32;35427;-80
2022/03/04 00:18:10;;;;;;;;;;;;;;;4.45;43.21;99707.75;4400110;32;34624;-80
2022/03/04 00:20:38;;;;;;;;;;;;;;;4.24;42.74;99709.28;4399177;32;32206;-80
2022/03/04 00:23:06;;;;;;;;;;;;;;;4.31;43.18;99705.28;4372664;32;33950;-81
2022/03/04 00:25:34;;;;;;;;;;;;;;;4.64;41.98;99710.78;4392185;32;34598;-81
2022/03/04 00:28:03;;;;;;;;;;;;;;;4.28;42.22;99702.88;4412310;32;35099;-80
2022/03/04 00:30:31;;;;;;;;;;;;;;;4.20;42.63;99704.34;4397208;32;32035;-81
2022/03/04 00:33:00;;;;;;;;;;;;;;;4.51;41.32;99696.81;4396939;32;32842;-80
2022/03/04 00:35:39;;;;;;;;;;;;;;;4.73;40.57;99699.56;4394523;32;35253;-81
2022/03/04 00:38:25;;;;;;;;;;;;;;;4.54;40.70;99693.94;4389496;32;34648;-81
2022/03/04 00:40:52;;;;;;;;;;;;;;;4.89;39.77;99701.97;4401103;32;32248;-81
2022/03/04 00:43:20;;;;;;;;;;;;;;;4.89;39.67;99694.06;4399248;32;33836;-80
2022/03/04 00:45:47;;;;;;;;;;;;;;;4.84;40.01;99698.81;4412787;32;34939;-80
2022/03/04 00:48:14;;;;;;;;;;;;;;;4.93;39.54;99691.09;4412424;32;34460;-80
2022/03/04 00:50:42;;;;;;;;;;;;;;;4.94;39.79;99694.56;4396696;32;34000;-80
2022/03/04 00:53:11;;;;;;;;;;;;;;;5.00;39.89;99692.31;4383777;32;33025;-81
2022/03/04 00:55:41;;;;;;;;;;;;;;;5.06;39.76;99685.75;4383624;32;34751;-81
2022/03/04 00:58:13;;;;;;;;;;;;;;;5.07;39.86;99680.37;4384545;32;803497;-80
2022/03/04 01:00:43;;;;;;;;;;;;;;;5.20;40.33;99686.41;4379895;32;31758;-81
2022/03/04 01:03:13;;;;;;;;;;;;;;;5.27;39.62;99682.38;4411865;32;34097;-81
2022/03/04 01:05:41;;;;;;;;;;;;;;;5.23;39.66;99685.34;4410755;32;35276;-81
2022/03/04 01:08:13;;;;;;;;;;;;;;;5.23;40.06;99685.34;4392728;32;34465;-81
2022/03/04 01:10:58;;;;;;;;;;;;;;;5.39;39.90;99678.84;4395560;32;33203;-81
2022/03/04 01:13:30;;;;;;;;;;;;;;;5.33;39.72;99671.38;4394202;32;33232;-81
2022/03/04 01:16:01;;;;;;;;;;;;;;;5.32;39.47;99674.13;4410659;32;34729;-81
2022/03/04 01:18:29;;;;;;;;;;;;;;;5.45;38.83;99682.81;4382576;32;33925;-81
2022/03/04 01:20:57;;;;;;;;;;;;;;;5.43;39.79;99680.28;4391849;32;33244;-81
2022/03/04 01:23:25;;;;;;;;;;;;;;;4.83;40.30;99676.88;4394418;32;32887;-81
2022/03/04 01:25:56;;;;;;;;;;;;;;;5.06;40.20;99669.94;4406546;32;34431;-81
2022/03/04 01:28:43;;;;;;;;;;;;;;;5.12;39.91;99672.97;4396993;32;33685;-81
2022/03/04 01:31:19;;;;;;;;;;;;;;;5.03;40.68;99667.53;4410655;32;33968;-81
2022/03/04 01:33:50;;;;;;;;;;;;;;;5.29;40.70;99671.72;4411609;32;34396;-81
2022/03/04 01:36:20;;;;;;;;;;;;;;;5.45;40.83;99673.09;4383997;32;35726;-81
2022/03/04 01:38:49;;;;;;;;;;;;;;;5.63;40.16;99667.28;4386798;32;34194;-81
2022/03/04 01:41:18;;;;;;;;;;;;;;;5.70;39.60;99665.00;4409511;32;33147;-81
2022/03/04 01:43:48;;;;;;;;;;;;;;;5.76;39.48;99670.66;4390947;32;33927;-81
2022/03/04 01:46:19;;;;;;;;;;;;;;;5.74;39.90;99661.16;4384632;32;35824;-81
2022/03/04 01:48:49;;;;;;;;;;;;;;;5.75;40.06;99661.06;4391999;32;34647;-81
2022/03/04 01:51:18;;;;;;;;;;;;;;;5.74;39.99;99656.75;4409490;32;33015;-81
2022/03/04 01:53:46;;;;;;;;;;;;;;;5.78;40.00;99646.78;4411443;32;33443;-81
2022/03/04 01:56:16;;;;;;;;;;;;;;;5.76;40.40;99661.88;4399076;32;36639;-81
2022/03/04 01:58:45;;;;;;;;;;;;;;;5.78;41.08;99667.91;4411910;32;34365;-81
2022/03/04 02:01:12;;;;;;;;;;;;;;;5.83;40.97;99671.03;4412105;32;31965;-81
2022/03/04 02:03:59;;;;;;;;;;;;;;;5.81;40.98;99670.34;4409362;32;34087;-82
2022/03/04 02:06:30;;;;;;;;;;;;;;;5.70;41.44;99678.19;4406840;32;33803;-82
2022/03/04 02:08:58;;;;;;;;;;;;;;;5.82;41.15;99669.38;4400356;32;34714;-81
2022/03/04 02:11:28;;;;;;;;;;;;;;;5.74;41.33;99675.22;4390262;32;33405;-81
2022/03/04 02:14:15;;;;;;;;;;;;;;;5.88;41.04;99671.56;4390214;32;33740;-81
2022/03/04 02:16:47;;;;;;;;;;;;;;;5.88;41.29;99668.91;4383942;32;34055;-81
2022/03/04 02:19:15;;;;;;;;;;;;;;;6.05;41.17;99669.28;4399742;32;34472;-81
2022/03/04 02:22:04;;;;;;;;;;;;;;;5.72;42.28;99674.50;4414229;32;34279;-81
2022/03/04 02:24:34;;;;;;;;;;;;;;;5.29;44.21;99667.25;4400132;32;34815;-81
2022/03/04 02:27:03;;;;;;;;;;;;;;;5.45;44.66;99675.72;4400306;32;34314;-81
2022/03/04 02:29:34;;;;;;;;;;;;;;;4.99;48.33;99666.09;4395599;32;33772;-83
2022/03/04 02:32:04;;;;;;;;;;;;;;;4.65;50.17;99675.59;4391979;32;33720;-82
2022/03/04 02:34:33;;;;;;;;;;;;;;;4.82;50.54;99669.09;4367823;32;33173;-81
2022/03/04 02:37:00;;;;;;;;;;;;;;;4.72;51.29;99678.63;4396355;32;35884;-81
2022/03/04 02:39:30;;;;;;;;;;;;;;;4.90;51.10;99679.94;4408496;32;35351;-82
2022/03/04 02:41:58;;;;;;;;;;;;;;;4.97;50.92;99681.16;4411519;32;33470;-81
2022/03/04 02:44:33;;;;;;;;;;;;;;;5.11;50.79;99683.63;4410826;32;34480;-82
2022/03/04 02:47:01;;;;;;;;;;;;;;;4.99;51.22;99685.34;4397477;32;35656;-82
2022/03/04 02:49:29;;;;;;;;;;;;;;;4.94;51.39;99686.66;4383662;32;33564;-82
2022/03/04 02:51:57;;;;;;;;;;;;;;;4.96;51.35;99679.47;4366638;32;32196;-82
2022/03/04 02:54:28;;;;;;;;;;;;;;;5.01;51.20;99672.91;4371534;32;32622;-82
2022/03/04 02:56:55;;;;;;;;;;;;;;;4.88;51.22;99684.44;4400172;32;34808;-83
2022/03/04 02:59:27;;;;;;;;;;;;;;;4.89;51.27;99687.00;4400374;32;34224;-83
2022/03/04 03:01:55;;;;;;;;;;;;;;;5.03;50.93;99684.19;4398236;32;33461;-82
2022/03/04 03:04:31;;;;;;;;;;;;;;;4.69;51.83;99686.72;4362017;32;33718;-83
2022/03/04 03:07:00;;;;;;;;;;;;;;;4.92;51.30;99688.56;4398251;32;34713;-83
2022/03/04 03:09:28;;;;;;;;;;;;;;;4.80;51.51;99692.09;4389391;32;35096;-82
2022/03/04 03:11:57;;;;;;;;;;;;;;;4.85;51.54;99689.97;4359229;32;32208;-83
2022/03/04 03:14:28;;;;;;;;;;;;;;;4.48;52.60;99693.53;4394153;32;34317;-83
2022/03/04 03:17:14;;;;;;;;;;;;;;;4.45;52.82;99691.13;4382296;32;35783;-83
2022/03/04 03:19:43;;;;;;;;;;;;;;;4.49;52.76;99695.22;4374515;32;34463;-82
2022/03/04 03:22:31;;;;;;;;;;;;;;;4.67;52.33;99688.66;4398193;32;34193;-83
2022/03/04 03:25:19;;;;;;;;;;;;;;;4.45;53.10;99691.13;4388460;32;33611;-83
2022/03/04 03:28:22;;;;;;;;;;;;;;;4.03;54.22;99696.75;4379581;32;35471;-82
2022/03/04 03:31:01;;;;;;;;;;;;;;;4.46;53.23;99701.56;4394277;32;34594;-82
2022/03/04 03:33:31;;;;;;;;;;;;;;;4.60;52.75;99698.78;4369134;32;33245;-83
2022/03/04 03:36:20;;;;;;;;;;;;;;;4.39;53.27;99704.72;4371084;32;33863;-82
2022/03/04 03:38:52;;;;;;;;;;;;;;;4.70;52.46;99706.91;4390384;32;34472;-82
2022/03/04 03:41:26;;;;;;;;;;;;;;;4.63;52.49;99703.81;4399330;32;33605;-82
2022/03/04 03:43:54;;;;;;;;;;;;;;;4.40;53.16;99715.16;4390955;32;34360;-82
2022/03/04 03:46:24;;;;;;;;;;;;;;;4.64;52.58;99709.94;4394632;32;33634;-82
2022/03/04 03:48:56;;;;;;;;;;;;;;;4.61;52.50;99708.38;4397529;32;35711;-82
2022/03/04 03:51:44;;;;;;;;;;;;;;;4.44;53.17;99710.53;4397839;32;34287;-83
2022/03/04 03:54:14;;;;;;;;;;;;;;;4.66;52.71;99714.16;4406105;32;33330;-82
2022/03/04 03:56:43;;;;;;;;;;;;;;;4.59;52.83;99717.31;4411634;32;34814;-82
2022/03/04 03:59:14;;;;;;;;;;;;;;;4.84;52.31;99717.25;4392992;32;34637;-82
2022/03/04 04:01:42;;;;;;;;;;;;;;;4.94;52.02;99713.88;4406192;32;34373;-82
2022/03/04 04:04:26;;;;;;;;;;;;;;;5.05;51.16;99713.94;4398437;32;32862;-82
2022/03/04 04:06:54;;;;;;;;;;;;;;;5.27;50.47;99702.66;4414016;32;34165;-82
2022/03/04 04:09:26;;;;;;;;;;;;;;;5.32;50.13;99709.25;4396730;32;34218;-83
2022/03/04 04:11:53;;;;;;;;;;;;;;;5.26;50.71;99706.25;4388187;32;33258;-83
2022/03/04 04:14:29;;;;;;;;;;;;;;;5.48;50.10;99705.34;4401944;32;33427;-83
2022/03/04 04:16:57;;;;;;;;;;;;;;;5.57;49.86;99706.44;4392626;32;32874;-82
2022/03/04 04:19:46;;;;;;;;;;;;;;;5.41;50.06;99705.94;4399920;32;34653;-82
2022/03/04 04:22:13;;;;;;;;;;;;;;;5.62;49.48;99710.47;4397698;32;33405;-83
2022/03/04 04:24:41;;;;;;;;;;;;;;;5.70;49.01;99717.78;4406967;32;32968;-82
2022/03/04 04:27:24;;;;;;;;;;;;;;;5.68;48.80;99715.25;4411797;32;33628;-82
2022/03/04 04:29:56;;;;;;;;;;;;;;;5.69;48.58;99718.75;4398091;32;34315;-83
2022/03/04 04:32:28;;;;;;;;;;;;;;;5.60;48.45;99714.16;4407489;32;34825;-83
2022/03/04 04:34:56;;;;;;;;;;;;;;;5.64;48.18;99719.09;4406528;32;32439;-82
2022/03/04 04:37:23;;;;;;;;;;;;;;;5.54;48.22;99719.87;4411552;32;33295;-83
2022/03/04 04:39:52;;;;;;;;;;;;;;;5.69;47.77;99724.03;4407985;32;35550;-83
2022/03/04 04:42:22;;;;;;;;;;;;;;;5.71;47.50;99724.75;4400771;32;33133;-82
2022/03/04 04:44:50;;;;;;;;;;;;;;;5.59;47.65;99729.13;4401926;32;32676;-82
2022/03/04 04:47:19;;;;;;;;;;;;;;;5.63;47.51;99737.69;4384400;32;34525;-83
2022/03/04 04:49:48;;;;;;;;;;;;;;;5.54;47.47;99738.34;4388651;32;35416;-83
2022/03/04 04:52:20;;;;;;;;;;;;;;;5.57;47.33;99740.75;4400654;32;34210;-83
2022/03/04 04:54:52;;;;;;;;;;;;;;;5.38;47.71;99745.72;4400045;32;33679;-83
2022/03/04 04:57:19;;;;;;;;;;;;;;;5.39;47.88;99751.84;4393809;32;33722;-83
2022/03/04 05:00:08;;;;;;;;;;;;;;;5.32;48.10;99758.53;4399663;32;35005;-83
2022/03/04 05:02:36;;;;;;;;;;;;;;;5.33;48.38;99766.34;4406637;32;35489;-83
2022/03/04 05:05:04;;;;;;;;;;;;;;;5.08;49.05;99766.41;4396858;32;32148;-82
2022/03/04 05:07:32;;;;;;;;;;;;;;;5.12;49.00;99761.78;4405727;32;33930;-81
2022/03/04 05:10:00;;;;;;;;;;;;;;;5.17;48.63;99767.56;4391982;32;34891;-82
2022/03/04 05:12:29;;;;;;;;;;;;;;;5.07;48.80;99767.38;4394782;32;33598;-83
2022/03/04 05:15:13;;;;;;;;;;;;;;;5.09;48.68;99770.75;4386399;32;32511;-82
2022/03/04 05:17:41;;;;;;;;;;;;;;;5.08;48.74;99771.69;4391180;32;34220;-82
2022/03/04 05:20:28;;;;;;;;;;;;;;;5.02;48.86;99774.78;4402892;32;34670;-82
2022/03/04 05:22:57;;;;;;;;;;;;;;;4.96;49.19;99782.28;4413206;32;34982;-82
2022/03/04 05:25:26;;;;;;;;;;;;;;;4.82;49.95;99783.25;4392515;32;32569;-82
2022/03/04 05:28:13;;;;;;;;;;;;;;;4.85;49.94;99780.41;4407736;32;34939;-83
2022/03/04 05:30:42;;;;;;;;;;;;;;;4.80;49.94;99792.25;4411939;32;35286;-82
2022/03/04 05:33:09;;;;;;;;;;;;;;;4.74;49.88;99792.66;4379518;32;33127;-82
2022/03/04 05:35:41;;;;;;;;;;;;;;;4.90;49.52;99796.75;4395665;32;32065;-82
2022/03/04 05:38:09;;;;;;;;;;;;;;;4.99;48.96;99793.44;4397011;32;34853;-82
2022/03/04 05:40:37;;;;;;;;;;;;;;;4.93;49.38;99793.91;4394137;32;35385;-82
2022/03/04 05:43:09;;;;;;;;;;;;;;;5.07;49.03;99803.47;4412505;32;34649;-82
2022/03/04 05:45:37;;;;;;;;;;;;;;;5.10;49.05;99795.31;4398040;32;32620;-82
2022/03/04 05:48:07;;;;;;;;;;;;;;;5.07;49.12;99809.56;4394862;32;33141;-83
2022/03/04 05:50:35;;;;;;;;;;;;;;;5.12;49.10;99815.38;4403921;32;34963;-82
2022/03/04 05:53:05;;;;;;;;;;;;;;;5.13;49.38;99814.41;4390137;32;33983;-81
2022/03/04 05:55:35;;;;;;;;;;;;;;;5.17;49.33;99815.84;4407679;32;32807;-82
2022/03/04 05:58:03;;;;;;;;;;;;;;;5.04;49.53;99820.34;4411211;32;33633;-83
2022/03/04 06:00:48;;;;;;;;;;;;;;;5.00;49.71;99824.13;4412175;32;35305;-82
2022/03/04 06:03:18;;;;;;;;;;;;;;;5.32;48.79;99829.75;4413260;32;35706;-83
2022/03/04 06:05:47;;;;;;;;;;;;;;;5.42;48.43;99822.84;4409082;32;33467;-84
2022/03/04 06:08:15;;;;;;;;;;;;;;;5.35;48.48;99822.44;4390676;32;33944;-82
2022/03/04 06:10:45;;;;;;;;;;;;;;;5.52;48.14;99822.91;4412330;32;34604;-84
2022/03/04 06:13:13;;;;;;;;;;;;;;;5.16;49.75;99821.22;4413641;32;35073;-83
2022/03/04 06:15:42;;;;;;;;;;;;;;;5.15;49.71;99838.00;4398123;32;33347;-83
2022/03/04 06:18:31;;;;;;;;;;;;;;;5.20;49.21;99841.19;4393389;32;34947;-83
2022/03/04 06:20:59;;;;;;;;;;;;;;;5.35;47.79;99832.19;4404904;32;35280;-83
2022/03/04 06:23:27;;;;;;;;;;;;;;;5.34;47.68;99846.28;4408134;32;35344;-83
2022/03/04 06:25:57;;;;;;;;;;;;;;;5.38;47.48;99850.41;4401162;32;32254;-82
2022/03/04 06:28:28;;;;;;;;;;;;;;;5.36;47.49;99849.69;4385816;32;34081;-83
2022/03/04 06:30:58;;;;;;;;;;;;;;;5.46;47.25;99851.53;4393271;32;34863;-83
2022/03/04 06:33:32;;;;;;;;;;;;;;;5.46;47.27;99856.81;4388159;32;34271;-83
2022/03/04 06:36:10;;;;;;;;;;;;;;;5.57;46.87;99855.09;4388835;32;32435;-83
2022/03/04 06:38:44;;;;;;;;;;;;;;;5.45;47.09;99856.94;4408436;32;32505;-82
2022/03/04 06:41:14;;;;;;;;;;;;;;;5.57;46.95;99862.13;4406515;32;35289;-82
2022/03/04 06:44:01;;;;;;;;;;;;;;;5.59;47.43;99869.00;4424489;27;33374;-79
2022/03/04 06:46:29;;;;;;;;;;;;;;;5.81;46.76;99870.94;4377372;32;32271;-79
2022/03/04 06:48:56;;;;;;;;;;;;;;;5.60;47.91;99868.03;4392440;32;34344;-79
2022/03/04 06:51:23;;;;;;;;;;;;;;;5.78;47.40;99865.88;4370174;32;34388;-79
2022/03/04 06:53:52;;;;;;;;;;;;;;;5.77;47.58;99866.84;4397953;32;34047;-79
2022/03/04 06:56:19;;;;;;;;;;;;;;;6.04;47.08;99859.50;4373759;32;31135;-79
2022/03/04 06:58:50;;;;;;;;;;;;;;;5.95;47.59;99868.97;4373903;32;32324;-79
2022/03/04 07:01:18;;;;;;;;;;;;;;;6.13;47.32;99866.75;4398669;32;35327;-79
2022/03/04 07:03:46;;;;;;;;;;;;;;;6.20;47.29;99873.25;4373031;32;35119;-79
2022/03/04 07:06:13;;;;;;;;;;;;;;;6.36;47.04;99876.44;4398513;32;33121;-79
2022/03/04 07:08:41;;;;;;;;;;;;;;;6.29;47.47;99877.84;4371596;32;32441;-80
2022/03/04 07:11:09;;;;;;;;;;;;;;;6.31;47.51;99881.22;4385544;32;36181;-80
2022/03/04 07:13:36;;;;;;;;;;;;;;;6.26;48.25;99878.09;4384108;32;35291;-79
2022/03/04 07:16:04;;;;;;;;;;;;;;;6.45;48.07;99878.37;4379394;32;33616;-80
2022/03/04 07:18:32;;;;;;;;;;;;;;;6.40;48.43;99889.31;4397949;32;34687;-78
2022/03/04 07:21:00;;;;;;;;;;;;;;;6.56;48.11;99883.69;4398406;32;34446;-78
2022/03/04 07:23:28;;;;;;;;;;;;;;;6.75;47.47;99891.91;4398522;32;34222;-79
2022/03/04 07:25:56;;;;;;;;;;;;;;;6.76;47.68;99886.50;4385650;32;33907;-79
2022/03/04 07:28:23;;;;;;;;;;;;;;;6.63;47.68;99891.03;4385819;32;34184;-79
2022/03/04 07:30:51;;;;;;;;;;;;;;;6.97;46.75;99883.97;4400060;32;35993;-79
2022/03/04 07:33:19;;;;;;;;;;;;;;;6.84;46.91;99891.19;4384485;32;35509;-79
2022/03/04 07:35:46;;;;;;;;;;;;;;;6.79;47.11;99896.00;4385841;32;33386;-79
2022/03/04 07:38:14;;;;;;;;;;;;;;;7.10;46.63;99895.31;4377408;32;34696;-79
2022/03/04 07:40:44;;;;;;;;;;;;;;;7.22;46.22;99902.28;4397921;32;34537;-79
2022/03/04 07:43:11;;;;;;;;;;;;;;;7.23;46.30;99904.81;4372976;32;35107;-79
2022/03/04 07:45:40;;;;;;;;;;;;;;;7.38;46.10;99903.56;4399219;32;33396;-81
2022/03/04 07:48:07;;;;;;;;;;;;;;;7.29;46.42;99899.00;4385688;32;34376;-80
2022/03/04 07:50:34;;;;;;;;;;;;;;;7.46;45.85;99903.81;4398221;32;34955;-79
2022/03/04 07:53:02;;;;;;;;;;;;;;;7.56;45.57;99907.41;4399659;32;34071;-79
2022/03/04 07:55:30;;;;;;;;;;;;;;;7.13;47.75;99909.13;4397447;32;34046;-79
2022/03/04 07:57:59;;;;;;;;;;;;;;;7.28;46.61;99910.56;4393685;32;33418;-80
2022/03/04 08:00:26;;;;;;;;;;;;;;;7.39;46.40;99915.88;4398347;32;35286;-79
2022/03/04 08:02:54;;;;;;;;;;;;;;;7.58;45.55;99924.03;4385721;32;34289;-80
2022/03/04 08:05:22;;;;;;;;;;;;;;;7.60;45.44;99930.03;4385397;32;32669;-79
2022/03/04 08:07:50;;;;;;;;;;;;;;;6.69;48.15;99924.09;4384563;32;34518;-79
2022/03/04 08:10:17;;;;;;;;;;;;;;;6.31;49.46;99934.06;4397086;32;35582;-81
2022/03/04 08:12:46;;;;;;;;;;;;;;;6.09;50.51;99934.84;4371750;32;32314;-81
2022/03/04 08:15:14;;;;;;;;;;;;;;;5.84;51.46;99937.56;4379617;32;32850;-79
2022/03/04 08:17:43;;;;;;;;;;;;;;;5.70;52.13;99945.59;4393864;32;34202;-79
2022/03/04 08:20:11;;;;;;;;;;;;;;;6.01;51.25;99949.53;4397684;32;35130;-79
2022/03/04 08:22:38;;;;;;;;;;;;;;;5.52;52.88;99941.63;4381897;32;35334;-79
2022/03/04 08:25:07;;;;;;;;;;;;;;;5.59;53.14;99950.81;4397836;32;32916;-79
2022/03/04 08:27:38;;;;;;;;;;;;;;;5.64;53.13;99947.84;4385647;32;34382;-79
2022/03/04 08:30:07;;;;;;;;;;;;;;;5.25;54.19;99950.66;4398289;32;35256;-78
2022/03/04 08:32:35;;;;;;;;;;;;;;;4.98;55.22;99952.56;4399684;32;35091;-78
2022/03/04 08:35:03;;;;;;;;;;;;;;;5.34;54.59;99957.94;4391881;32;33025;-79
2022/03/04 08:37:32;;;;;;;;;;;;;;;5.34;54.71;99957.06;4395864;32;34968;-79
2022/03/04 08:40:00;;;;;;;;;;;;;;;5.21;54.83;99962.37;4390857;32;34263;-79
2022/03/04 08:42:28;;;;;;;;;;;;;;;5.30;54.84;99959.12;4382295;32;34820;-81
2022/03/04 08:44:56;;;;;;;;;;;;;;;5.50;54.23;99955.91;4378082;32;33428;-81
2022/03/04 08:47:24;;;;;;;;;;;;;;;5.45;54.93;99957.19;4384363;32;33845;-80
2022/03/04 08:49:52;;;;;;;;;;;;;;;5.19;55.69;99961.63;4394206;32;33487;-80
2022/03/04 08:52:21;;;;;;;;;;;;;;;5.51;54.69;99960.22;4378012;32;34219;-80
2022/03/04 08:54:49;;;;;;;;;;;;;;;5.80;53.54;99967.75;4384543;32;33276;-81
2022/03/04 08:57:17;;;;;;;;;;;;;;;6.04;52.18;99968.66;4375548;32;34259;-83
2022/03/04 08:59:45;;;;;;;;;;;;;;;5.51;54.21;99968.16;4384949;32;35667;-80
2022/03/04 09:02:13;;;;;;;;;;;;;;;5.62;53.56;99968.22;4392403;32;35089;-81
2022/03/04 09:04:42;;;;;;;;;;;;;;;5.97;52.59;99961.28;4397805;32;32593;-81
2022/03/04 09:07:10;;;;;;;;;;;;;;;6.10;52.57;99968.22;4394472;32;33897;-81
2022/03/04 09:09:38;;;;;;;;;;;;;;;6.03;52.83;99966.97;4393743;32;35360;-81
2022/03/04 09:12:07;;;;;;;;;;;;;;;6.34;51.60;99965.56;4369698;32;34986;-81
2022/03/04 09:14:35;;;;;;;;;;;;;;;6.52;50.72;99969.47;4395657;32;33458;-81
2022/03/04 09:17:03;;;;;;;;;;;;;;;6.83;50.64;99960.91;4371266;32;31948;-81
2022/03/04 09:19:31;;;;;;;;;;;;;;;7.04;49.98;99968.03;4370476;32;35870;-82
2022/03/04 09:22:20;;;;;;;;;;;;;;;7.20;50.10;99962.41;4380143;32;34873;-81
2022/03/04 09:24:48;;;;;;;;;;;;;;;7.40;48.88;99964.34;4398248;32;34201;-81
2022/03/04 09:27:15;;;;;;;;;;;;;;;7.29;50.13;99964.34;4393732;32;34352;-81
2022/03/04 09:29:43;;;;;;;;;;;;;;;7.79;48.25;99966.47;4370052;32;33657;-81
2022/03/04 09:32:10;;;;;;;;;;;;;;;8.06;46.77;99965.09;4398751;32;33851;-82
2022/03/04 09:34:38;;;;;;;;;;;;;;;8.10;46.09;99965.69;4369286;32;33037;-81
2022/03/04 09:37:06;;;;;;;;;;;;;;;8.14;45.90;99972.41;4380950;32;33298;-82
2022/03/04 09:39:34;;;;;;;;;;;;;;;8.45;44.46;99980.41;4378144;32;35077;-81
2022/03/04 09:42:02;;;;;;;;;;;;;;;8.37;45.09;99974.91;4384321;32;33960;-82
2022/03/04 09:44:30;;;;;;;;;;;;;;;8.45;45.15;99985.72;4397803;32;33917;-82
2022/03/04 09:46:59;;;;;;;;;;;;;;;8.43;44.83;99980.53;4384257;32;33526;-81
2022/03/04 09:49:27;;;;;;;;;;;;;;;8.69;44.08;99983.72;4396793;32;35221;-82
2022/03/04 09:51:56;;;;;;;;;;;;;;;8.80;44.32;99973.03;4381883;32;34545;-82
2022/03/04 09:54:30;;;;;;;;;;;;;;;8.89;44.09;99978.37;4377684;32;31818;-81
2022/03/04 09:56:58;;;;;;;;;;;;;;;8.94;43.63;99970.91;4385481;32;34697;-82
2022/03/04 09:59:25;;;;;;;;;;;;;;;8.67;45.14;99981.16;4386287;32;34778;-81
2022/03/04 10:01:52;;;;;;;;;;;;;;;8.67;44.58;99975.00;4373600;32;33018;-83
2022/03/04 10:04:24;;;;;;;;;;;;;;;8.56;46.01;99975.94;4396460;32;33358;-84
2022/03/04 10:06:52;;;;;;;;;;;;;;;9.10;44.35;99973.91;4394190;32;33628;-86
2022/03/04 10:09:34;;;;;;;;;;;;;;;9.00;44.40;99972.19;4396812;32;36074;-85
2022/03/04 10:12:04;;;;;;;;;;;;;;;9.08;43.82;99970.56;4386408;32;34436;-85
2022/03/04 10:14:31;;;;;;;;;;;;;;;9.01;44.41;99963.25;4373608;32;33081;-83
2022/03/04 10:16:59;;;;;;;;;;;;;;;9.14;44.30;99970.03;4392767;32;33617;-84
2022/03/04 10:19:28;;;;;;;;;;;;;;;9.31;44.18;99961.47;4381136;32;34676;-84
2022/03/04 10:21:56;;;;;;;;;;;;;;;9.22;43.46;99969.38;4369375;32;33475;-83
2022/03/04 10:24:31;;;;;;;;;;;;;;;9.30;42.99;99962.44;4382083;32;32884;-84
2022/03/04 10:27:02;;;;;;;;;;;;;;;9.49;42.36;99962.53;4391980;32;33978;-84
2022/03/04 10:29:36;;;;;;;;;;;;;;;9.42;42.50;99957.88;4381689;32;36819;-83
2022/03/04 10:32:19;;;;;;;;;;;;;;;9.46;43.06;99952.16;4397182;32;35389;-83
2022/03/04 10:34:54;;;;;;;;;;;;;;;9.97;41.51;99958.22;4400452;32;33091;-83
2022/03/04 10:37:22;;;;;;;;;;;;;;;9.64;41.72;99961.19;4378696;32;34342;-83
2022/03/04 10:40:08;;;;;;;;;;;;;;;9.95;42.09;99952.22;4394582;32;35354;-82
2022/03/04 10:42:43;;;;;;;;;;;;;;;9.86;42.91;99961.00;4391901;32;34765;-82
2022/03/04 10:45:25;;;;;;;;;;;;;;;9.63;44.57;99956.84;4394313;32;32926;-84
2022/03/04 10:47:56;;;;;;;;;;;;;;;9.65;42.62;99962.84;4394626;32;33928;-80
2022/03/04 10:50:32;;;;;;;;;;;;;;;9.39;43.57;99964.31;4386323;32;36141;-85
2022/03/04 10:53:10;;;;;;;;;;;;;;;9.44;44.20;99947.97;4386452;32;34839;-83
2022/03/04 10:55:42;;;;;;;;;;;;;;;9.77;43.42;99953.84;4384880;32;33098;-80
2022/03/04 10:58:20;;;;;;;;;;;;;;;9.26;44.32;99953.06;4367787;32;33664;-84
2022/03/04 11:00:49;;;;;;;;;;;;;;;9.34;44.68;99952.38;4366341;32;33765;-89
2022/03/04 11:03:20;;;;;;;;;;;;;;;9.49;44.02;99946.59;4398644;32;35315;-83
2022/03/04 11:05:48;;;;;;;;;;;;;;;9.50;44.36;99945.63;4383326;32;31976;-87
2022/03/04 11:08:16;;;;;;;;;;;;;;;9.65;43.56;99957.53;4380407;32;34370;-83
2022/03/04 11:10:43;;;;;;;;;;;;;;;9.47;44.41;99953.03;4393502;32;35318;-87
2022/03/04 11:13:11;;;;;;;;;;;;;;;9.41;44.67;99951.75;4395835;32;34907;-85
2022/03/04 11:15:40;;;;;;;;;;;;;;;9.62;43.71;99949.84;4378400;32;33188;-86
2022/03/04 11:18:08;;;;;;;;;;;;;;;10.12;42.34;99948.06;4398005;32;33475;-85
2022/03/04 11:20:36;;;;;;;;;;;;;;;9.63;43.28;99950.72;4394878;32;35031;-86
2022/03/04 11:23:06;;;;;;;;;;;;;;;9.59;43.58;99950.13;4365855;32;32797;-86
2022/03/04 11:25:38;;;;;;;;;;;;;;;9.50;44.38;99944.78;4386022;32;31684;-84
2022/03/04 11:28:08;;;;;;;;;;;;;;;9.17;45.48;99953.84;4389857;32;33620;-84
2022/03/04 11:30:39;;;;;;;;;;;;;;;9.38;44.83;99951.16;4378649;32;35366;-82
2022/03/04 11:33:18;;;;;;;;;;;;;;;9.24;44.92;99949.69;4398537;32;34011;-85
2022/03/04 11:35:51;;;;;;;;;;;;;;;9.69;44.36;99943.03;4397401;32;33596;-84
2022/03/04 11:38:58;;;;;;;;;;;;;;;9.54;44.61;99946.22;4394286;32;34072;-85
2022/03/04 11:41:30;;;;;;;;;;;;;;;9.82;44.17;99953.44;4349159;32;35598;-83
2022/03/04 11:43:58;;;;;;;;;;;;;;;10.19;42.76;99944.72;4343053;32;34527;-82
2022/03/04 11:46:41;;;;;;;;;;;;;;;9.80;43.41;99950.91;4352799;32;33168;-85
2022/03/04 11:49:21;;;;;;;;;;;;;;;10.32;41.88;99944.44;4352103;32;34542;-82
2022/03/04 11:52:07;;;;;;;;;;;;;;;10.46;41.94;99947.53;4339237;32;34302;-80
2022/03/04 11:54:55;;;;;;;;;;;;;;;10.11;42.77;99941.06;4351544;32;34254;-81
2022/03/04 11:57:24;;;;;;;;;;;;;;;9.96;43.16;99942.41;4351799;32;33854;-80
2022/03/04 11:59:56;;;;;;;;;;;;;;;9.65;43.06;99946.09;4326981;32;32161;-81
2022/03/04 12:02:26;;;;;;;;;;;;;;;10.45;42.05;99937.03;4339333;32;34468;-82
2022/03/04 12:05:12;;;;;;;;;;;;;;;10.86;41.73;99940.22;4339683;32;32540;-82
2022/03/04 12:07:41;;;;;;;;;;;;;;;10.81;41.26;99939.81;4327470;32;32182;-82
2022/03/04 12:10:12;;;;;;;;;;;;;;;10.72;42.11;99942.47;4351682;32;33904;-79
2022/03/04 12:12:42;;;;;;;;;;;;;;;10.58;40.84;99938.41;4367129;32;35264;-79
2022/03/04 12:15:16;;;;;;;;;;;;;;;10.75;40.55;99942.22;4382385;32;34324;-79
2022/03/04 12:18:02;;;;;;;;;;;;;;;10.63;41.08;99952.16;4398232;32;33518;-81
2022/03/04 12:20:39;;;;;;;;;;;;;;;10.08;41.29;99951.97;4395919;32;34182;-82
2022/03/04 12:23:14;;;;;;;;;;;;;;;9.83;42.14;99949.78;4399259;32;35680;-81
2022/03/04 12:25:54;;;;;;;;;;;;;;;9.90;41.63;99956.25;4395241;32;33109;-81
2022/03/04 12:28:23;;;;;;;;;;;;;;;9.97;41.69;99954.72;4380359;32;34117;-80
2022/03/04 12:31:00;;;;;;;;;;;;;;;10.18;42.11;99948.34;4397426;32;33294;-80
2022/03/04 12:33:29;;;;;;;;;;;;;;;10.12;42.80;99945.41;4389889;32;35036;-80
2022/03/04 12:35:58;;;;;;;;;;;;;;;9.96;43.27;99947.72;4380162;32;35145;-80
2022/03/04 12:38:26;;;;;;;;;;;;;;;10.13;43.56;99953.25;4396340;32;33477;-80
2022/03/04 12:40:57;;;;;;;;;;;;;;;10.21;44.58;99955.22;4393511;32;34844;-83
2022/03/04 12:43:25;;;;;;;;;;;;;;;10.33;43.17;99946.97;4384326;32;35284;-83
2022/03/04 12:45:55;;;;;;;;;;;;;;;9.93;45.00;99946.16;4384847;32;34408;-82
2022/03/04 12:48:23;;;;;;;;;;;;;;;10.32;43.03;99952.41;4383020;32;33430;-82
2022/03/04 12:50:51;;;;;;;;;;;;;;;9.87;44.00;99951.19;4394095;32;34189;-81
2022/03/04 12:53:27;;;;;;;;;;;;;;;10.21;44.35;99947.25;4379520;32;35859;-81
2022/03/04 12:55:56;;;;;;;;;;;;;;;9.26;47.21;99965.50;4398408;32;34062;-81
2022/03/04 12:58:46;;;;;;;;;;;;;;;8.45;49.94;99959.22;4385439;32;32920;-80
2022/03/04 13:01:14;;;;;;;;;;;;;;;8.95;50.41;99961.09;4371020;32;32166;-80
2022/03/04 13:03:43;;;;;;;;;;;;;;;9.31;50.12;99953.50;4396674;32;35976;-81
2022/03/04 13:06:12;;;;;;;;;;;;;;;9.27;49.94;99962.69;4371328;32;34498;-82
2022/03/04 13:08:46;;;;;;;;;;;;;;;9.65;49.44;99954.06;4396881;32;32729;-81
2022/03/04 13:11:15;;;;;;;;;;;;;;;9.81;49.71;99949.91;4380060;32;31904;-81
2022/03/04 13:13:43;;;;;;;;;;;;;;;9.75;47.48;99950.44;4382599;32;35319;-81
2022/03/04 13:16:11;;;;;;;;;;;;;;;9.69;48.29;99939.53;4379299;32;34837;-81